sensor_id;sensor_type;location;lat;lon;timestamp;temperature;humidity
67054;SHT31;53960;51.826;5.850;2022-11-20T00:00:42;-1.29;85.93
67054;SHT31;53960;51.826;5.850;2022-11-20T00:03:07;-1.29;85.80
67054;SHT31;53960;51.826;5.850;2022-11-20T00:05:33;-1.32;85.60
67054;SHT31;53960;51.826;5.850;2022-11-20T00:07:58;-1.33;85.83
67054;SHT31;53960;51.826;5.850;2022-11-20T00:10:23;-1.32;85.83
67054;SHT31;53960;51.826;5.850;2022-11-20T00:12:49;-1.37;85.74
67054;SHT31;53960;51.826;5.850;2022-11-20T00:15:14;-1.43;85.87
67054;SHT31;53960;51.826;5.850;2022-11-20T00:17:40;-1.39;86.06
67054;SHT31;53960;51.826;5.850;2022-11-20T00:20:05;-1.39;86.21
67054;SHT31;53960;51.826;5.850;2022-11-20T00:22:31;-1.36;86.31
67054;SHT31;53960;51.826;5.850;2022-11-20T00:24:56;-1.35;86.16
67054;SHT31;53960;51.826;5.850;2022-11-20T00:27:22;-1.36;86.43
67054;SHT31;53960;51.826;5.850;2022-11-20T00:29:48;-1.35;86.05
67054;SHT31;53960;51.826;5.850;2022-11-20T00:32:13;-1.32;85.69
67054;SHT31;53960;51.826;5.850;2022-11-20T00:34:38;-1.33;85.69
67054;SHT31;53960;51.826;5.850;2022-11-20T00:37:04;-1.33;85.94
67054;SHT31;53960;51.826;5.850;2022-11-20T00:39:29;-1.39;86.21
67054;SHT31;53960;51.826;5.850;2022-11-20T00:41:55;-1.42;85.89
67054;SHT31;53960;51.826;5.850;2022-11-20T00:44:20;-1.43;85.94
67054;SHT31;53960;51.826;5.850;2022-11-20T00:46:46;-1.44;85.85
67054;SHT31;53960;51.826;5.850;2022-11-20T00:49:11;-1.47;85.99
67054;SHT31;53960;51.826;5.850;2022-11-20T00:51:36;-1.53;86.14
67054;SHT31;53960;51.826;5.850;2022-11-20T00:54:02;-1.54;86.28
67054;SHT31;53960;51.826;5.850;2022-11-20T00:56:27;-1.51;86.35
67054;SHT31;53960;51.826;5.850;2022-11-20T00:58:52;-1.56;86.60
67054;SHT31;53960;51.826;5.850;2022-11-20T01:01:20;-1.53;86.52
67054;SHT31;53960;51.826;5.850;2022-11-20T01:03:50;-1.53;86.60
67054;SHT31;53960;51.826;5.850;2022-11-20T01:08:43;-1.56;86.30
67054;SHT31;53960;51.826;5.850;2022-11-20T01:11:15;-1.54;86.25
67054;SHT31;53960;51.826;5.850;2022-11-20T01:13:42;-1.60;86.19
67054;SHT31;53960;51.826;5.850;2022-11-20T01:16:22;-1.61;86.41
67054;SHT31;53960;51.826;5.850;2022-11-20T01:18:50;-1.60;86.46
67054;SHT31;53960;51.826;5.850;2022-11-20T01:21:30;-1.64;86.72
67054;SHT31;53960;51.826;5.850;2022-11-20T01:23:57;-1.60;86.86
67054;SHT31;53960;51.826;5.850;2022-11-20T01:26:25;-1.61;86.87
67054;SHT31;53960;51.826;5.850;2022-11-20T01:28:51;-1.63;86.71
67054;SHT31;53960;51.826;5.850;2022-11-20T01:31:20;-1.66;86.58
67054;SHT31;53960;51.826;5.850;2022-11-20T01:33:47;-1.64;86.47
67054;SHT31;53960;51.826;5.850;2022-11-20T01:36:14;-1.68;86.59
67054;SHT31;53960;51.826;5.850;2022-11-20T01:38:41;-1.72;86.72
67054;SHT31;53960;51.826;5.850;2022-11-20T01:41:07;-1.72;86.83
67054;SHT31;53960;51.826;5.850;2022-11-20T01:43:33;-1.72;86.57
67054;SHT31;53960;51.826;5.850;2022-11-20T01:46:17;-1.78;86.79
67054;SHT31;53960;51.826;5.850;2022-11-20T01:51:31;-1.79;86.88
67054;SHT31;53960;51.826;5.850;2022-11-20T01:54:00;-1.84;87.02
67054;SHT31;53960;51.826;5.850;2022-11-20T01:56:27;-1.85;87.02
67054;SHT31;53960;51.826;5.850;2022-11-20T01:58:56;-1.81;86.75
67054;SHT31;53960;51.826;5.850;2022-11-20T02:01:23;-1.81;86.79
67054;SHT31;53960;51.826;5.850;2022-11-20T02:03:49;-1.82;87.04
67054;SHT31;53960;51.826;5.850;2022-11-20T02:06:40;-1.81;87.17
67054;SHT31;53960;51.826;5.850;2022-11-20T02:09:07;-1.79;86.72
67054;SHT31;53960;51.826;5.850;2022-11-20T02:11:32;-1.84;86.87
67054;SHT31;53960;51.826;5.850;2022-11-20T02:13:58;-1.88;87.12
67054;SHT31;53960;51.826;5.850;2022-11-20T02:16:29;-1.88;86.90
67054;SHT31;53960;51.826;5.850;2022-11-20T02:18:57;-1.94;87.12
67054;SHT31;53960;51.826;5.850;2022-11-20T02:24:21;-1.98;87.22
67054;SHT31;53960;51.826;5.850;2022-11-20T02:29:40;-1.94;87.59
67054;SHT31;53960;51.826;5.850;2022-11-20T02:32:20;-1.92;87.60
67054;SHT31;53960;51.826;5.850;2022-11-20T02:34:46;-1.89;87.65
67054;SHT31;53960;51.826;5.850;2022-11-20T02:37:12;-1.88;87.99
67054;SHT31;53960;51.826;5.850;2022-11-20T02:39:39;-1.92;87.80
67054;SHT31;53960;51.826;5.850;2022-11-20T02:42:05;-1.98;87.88
67054;SHT31;53960;51.826;5.850;2022-11-20T02:44:30;-1.98;87.73
67054;SHT31;53960;51.826;5.850;2022-11-20T02:46:57;-1.91;87.63
67054;SHT31;53960;51.826;5.850;2022-11-20T02:49:23;-1.97;87.51
67054;SHT31;53960;51.826;5.850;2022-11-20T02:51:49;-1.97;87.47
67054;SHT31;53960;51.826;5.850;2022-11-20T02:54:14;-1.97;87.55
67054;SHT31;53960;51.826;5.850;2022-11-20T02:56:39;-2.01;87.43
67054;SHT31;53960;51.826;5.850;2022-11-20T02:59:04;-2.06;87.25
67054;SHT31;53960;51.826;5.850;2022-11-20T03:01:30;-2.02;87.33
67054;SHT31;53960;51.826;5.850;2022-11-20T03:03:55;-2.03;87.88
67054;SHT31;53960;51.826;5.850;2022-11-20T03:06:21;-2.02;87.73
67054;SHT31;53960;51.826;5.850;2022-11-20T03:08:46;-2.01;87.65
67054;SHT31;53960;51.826;5.850;2022-11-20T03:11:12;-2.03;87.63
67054;SHT31;53960;51.826;5.850;2022-11-20T03:13:37;-2.09;87.91
67054;SHT31;53960;51.826;5.850;2022-11-20T03:16:13;-2.13;87.93
67054;SHT31;53960;51.826;5.850;2022-11-20T03:18:40;-2.10;87.59
67054;SHT31;53960;51.826;5.850;2022-11-20T03:21:06;-2.09;87.72
67054;SHT31;53960;51.826;5.850;2022-11-20T03:23:33;-2.05;87.94
67054;SHT31;53960;51.826;5.850;2022-11-20T03:28:37;-2.01;88.33
67054;SHT31;53960;51.826;5.850;2022-11-20T03:31:10;-2.03;87.95
67054;SHT31;53960;51.826;5.850;2022-11-20T03:33:36;-2.03;88.00
67054;SHT31;53960;51.826;5.850;2022-11-20T03:36:08;-2.02;88.03
67054;SHT31;53960;51.826;5.850;2022-11-20T03:38:34;-2.05;87.84
67054;SHT31;53960;51.826;5.850;2022-11-20T03:41:10;-2.09;87.91
67054;SHT31;53960;51.826;5.850;2022-11-20T03:43:36;-2.13;87.95
67054;SHT31;53960;51.826;5.850;2022-11-20T03:46:02;-2.15;88.08
67054;SHT31;53960;51.826;5.850;2022-11-20T03:48:28;-2.13;87.89
67054;SHT31;53960;51.826;5.850;2022-11-20T03:51:06;-2.15;87.64
67054;SHT31;53960;51.826;5.850;2022-11-20T03:53:31;-2.16;87.52
67054;SHT31;53960;51.826;5.850;2022-11-20T03:55:56;-2.19;87.60
67054;SHT31;53960;51.826;5.850;2022-11-20T03:58:22;-2.23;87.52
67054;SHT31;53960;51.826;5.850;2022-11-20T04:00:47;-2.30;87.37
67054;SHT31;53960;51.826;5.850;2022-11-20T04:03:12;-2.29;87.47
67054;SHT31;53960;51.826;5.850;2022-11-20T04:05:38;-2.30;87.17
67054;SHT31;53960;51.826;5.850;2022-11-20T04:08:03;-2.38;87.57
67054;SHT31;53960;51.826;5.850;2022-11-20T04:10:28;-2.33;87.47
67054;SHT31;53960;51.826;5.850;2022-11-20T04:12:54;-2.33;87.56
67054;SHT31;53960;51.826;5.850;2022-11-20T04:15:19;-2.36;87.53
67054;SHT31;53960;51.826;5.850;2022-11-20T04:17:44;-2.42;87.60
67054;SHT31;53960;51.826;5.850;2022-11-20T04:20:10;-2.39;88.11
67054;SHT31;53960;51.826;5.850;2022-11-20T04:22:35;-2.40;87.81
67054;SHT31;53960;51.826;5.850;2022-11-20T04:25:00;-2.46;88.20
67054;SHT31;53960;51.826;5.850;2022-11-20T04:27:26;-2.45;87.73
67054;SHT31;53960;51.826;5.850;2022-11-20T04:29:51;-2.43;87.78
67054;SHT31;53960;51.826;5.850;2022-11-20T04:32:16;-2.42;87.74
67054;SHT31;53960;51.826;5.850;2022-11-20T04:34:41;-2.45;87.22
67054;SHT31;53960;51.826;5.850;2022-11-20T04:37:07;-2.47;87.45
67054;SHT31;53960;51.826;5.850;2022-11-20T04:39:32;-2.56;87.33
67054;SHT31;53960;51.826;5.850;2022-11-20T04:41:57;-2.52;87.58
67054;SHT31;53960;51.826;5.850;2022-11-20T04:44:41;-2.49;87.34
67054;SHT31;53960;51.826;5.850;2022-11-20T04:47:06;-2.50;87.25
67054;SHT31;53960;51.826;5.850;2022-11-20T04:49:31;-2.52;87.19
67054;SHT31;53960;51.826;5.850;2022-11-20T04:51:57;-2.54;86.95
67054;SHT31;53960;51.826;5.850;2022-11-20T04:54:23;-2.57;87.43
67054;SHT31;53960;51.826;5.850;2022-11-20T04:56:48;-2.57;87.54
67054;SHT31;53960;51.826;5.850;2022-11-20T04:59:14;-2.60;87.55
67054;SHT31;53960;51.826;5.850;2022-11-20T05:01:39;-2.61;87.33
67054;SHT31;53960;51.826;5.850;2022-11-20T05:04:04;-2.60;87.50
67054;SHT31;53960;51.826;5.850;2022-11-20T05:06:31;-2.59;87.38
67054;SHT31;53960;51.826;5.850;2022-11-20T05:08:56;-2.60;86.97
67054;SHT31;53960;51.826;5.850;2022-11-20T05:11:22;-2.64;87.06
67054;SHT31;53960;51.826;5.850;2022-11-20T05:13:48;-2.61;86.84
67054;SHT31;53960;51.826;5.850;2022-11-20T05:16:16;-2.63;86.96
67054;SHT31;53960;51.826;5.850;2022-11-20T05:18:42;-2.64;87.27
67054;SHT31;53960;51.826;5.850;2022-11-20T05:21:08;-2.64;87.26
67054;SHT31;53960;51.826;5.850;2022-11-20T05:23:34;-2.61;87.38
67054;SHT31;53960;51.826;5.850;2022-11-20T05:26:00;-2.63;87.42
67054;SHT31;53960;51.826;5.850;2022-11-20T05:28:27;-2.68;87.13
67054;SHT31;53960;51.826;5.850;2022-11-20T05:30:52;-2.73;87.34
67054;SHT31;53960;51.826;5.850;2022-11-20T05:33:18;-2.74;87.40
67054;SHT31;53960;51.826;5.850;2022-11-20T05:35:43;-2.81;87.33
67054;SHT31;53960;51.826;5.850;2022-11-20T05:38:09;-2.78;87.67
67054;SHT31;53960;51.826;5.850;2022-11-20T05:40:34;-2.77;87.82
67054;SHT31;53960;51.826;5.850;2022-11-20T05:43:00;-2.80;87.79
67054;SHT31;53960;51.826;5.850;2022-11-20T05:45:26;-2.77;87.52
67054;SHT31;53960;51.826;5.850;2022-11-20T05:47:51;-2.76;87.64
67054;SHT31;53960;51.826;5.850;2022-11-20T05:50:16;-2.77;87.57
67054;SHT31;53960;51.826;5.850;2022-11-20T05:52:42;-2.83;87.74
67054;SHT31;53960;51.826;5.850;2022-11-20T05:55:07;-2.81;87.41
67054;SHT31;53960;51.826;5.850;2022-11-20T05:57:33;-2.81;87.22
67054;SHT31;53960;51.826;5.850;2022-11-20T05:59:58;-2.87;87.23
67054;SHT31;53960;51.826;5.850;2022-11-20T06:02:23;-2.83;87.15
67054;SHT31;53960;51.826;5.850;2022-11-20T06:04:49;-2.91;87.31
67054;SHT31;53960;51.826;5.850;2022-11-20T06:07:14;-2.92;87.15
67054;SHT31;53960;51.826;5.850;2022-11-20T06:09:39;-2.91;87.37
67054;SHT31;53960;51.826;5.850;2022-11-20T06:12:05;-2.89;87.00
67054;SHT31;53960;51.826;5.850;2022-11-20T06:14:30;-2.94;86.93
67054;SHT31;53960;51.826;5.850;2022-11-20T06:16:56;-2.95;87.36
67054;SHT31;53960;51.826;5.850;2022-11-20T06:19:21;-2.95;87.43
67054;SHT31;53960;51.826;5.850;2022-11-20T06:21:48;-2.94;87.29
67054;SHT31;53960;51.826;5.850;2022-11-20T06:24:14;-3.01;87.30
67054;SHT31;53960;51.826;5.850;2022-11-20T06:26:39;-2.92;87.57
67054;SHT31;53960;51.826;5.850;2022-11-20T06:29:05;-2.95;87.91
67054;SHT31;53960;51.826;5.850;2022-11-20T06:31:30;-2.91;87.74
67054;SHT31;53960;51.826;5.850;2022-11-20T06:33:57;-2.92;87.35
67054;SHT31;53960;51.826;5.850;2022-11-20T06:36:23;-2.97;87.28
67054;SHT31;53960;51.826;5.850;2022-11-20T06:38:48;-3.01;87.47
67054;SHT31;53960;51.826;5.850;2022-11-20T06:41:16;-3.01;87.06
67054;SHT31;53960;51.826;5.850;2022-11-20T06:43:42;-3.02;87.28
67054;SHT31;53960;51.826;5.850;2022-11-20T06:46:09;-3.07;87.36
67054;SHT31;53960;51.826;5.850;2022-11-20T06:48:34;-3.11;87.62
67054;SHT31;53960;51.826;5.850;2022-11-20T06:51:03;-3.07;87.70
67054;SHT31;53960;51.826;5.850;2022-11-20T06:53:28;-3.07;87.52
67054;SHT31;53960;51.826;5.850;2022-11-20T06:55:56;-3.04;87.88
67054;SHT31;53960;51.826;5.850;2022-11-20T06:58:23;-2.99;87.47
67054;SHT31;53960;51.826;5.850;2022-11-20T07:00:48;-3.04;87.59
67054;SHT31;53960;51.826;5.850;2022-11-20T07:03:14;-3.04;87.45
67054;SHT31;53960;51.826;5.850;2022-11-20T07:05:39;-2.99;87.55
67054;SHT31;53960;51.826;5.850;2022-11-20T07:08:05;-2.97;87.81
67054;SHT31;53960;51.826;5.850;2022-11-20T07:10:31;-2.94;87.75
67054;SHT31;53960;51.826;5.850;2022-11-20T07:12:57;-2.91;87.86
67054;SHT31;53960;51.826;5.850;2022-11-20T07:15:23;-2.87;87.80
67054;SHT31;53960;51.826;5.850;2022-11-20T07:17:49;-2.84;87.93
67054;SHT31;53960;51.826;5.850;2022-11-20T07:20:15;-2.85;88.32
67054;SHT31;53960;51.826;5.850;2022-11-20T07:22:41;-2.78;88.30
67054;SHT31;53960;51.826;5.850;2022-11-20T07:25:07;-2.74;87.95
67054;SHT31;53960;51.826;5.850;2022-11-20T07:27:32;-2.70;87.95
67054;SHT31;53960;51.826;5.850;2022-11-20T07:29:58;-2.67;87.91
67054;SHT31;53960;51.826;5.850;2022-11-20T07:32:24;-2.66;87.84
67054;SHT31;53960;51.826;5.850;2022-11-20T07:34:49;-2.66;88.07
67054;SHT31;53960;51.826;5.850;2022-11-20T07:37:15;-2.60;87.95
67054;SHT31;53960;51.826;5.850;2022-11-20T07:39:41;-2.59;87.70
67054;SHT31;53960;51.826;5.850;2022-11-20T07:42:06;-2.53;87.78
67054;SHT31;53960;51.826;5.850;2022-11-20T07:44:32;-2.47;87.80
67054;SHT31;53960;51.826;5.850;2022-11-20T07:46:57;-2.49;87.57
67054;SHT31;53960;51.826;5.850;2022-11-20T07:49:23;-2.45;87.93
67054;SHT31;53960;51.826;5.850;2022-11-20T07:51:50;-2.36;87.93
67054;SHT31;53960;51.826;5.850;2022-11-20T07:54:16;-2.33;87.92
67054;SHT31;53960;51.826;5.850;2022-11-20T07:56:41;-2.29;87.98
67054;SHT31;53960;51.826;5.850;2022-11-20T07:59:06;-2.22;88.13
67054;SHT31;53960;51.826;5.850;2022-11-20T08:01:32;-2.16;88.06
67054;SHT31;53960;51.826;5.850;2022-11-20T08:03:57;-2.13;87.97
67054;SHT31;53960;51.826;5.850;2022-11-20T08:06:22;-2.08;88.41
67054;SHT31;53960;51.826;5.850;2022-11-20T08:08:49;-1.94;88.53
67054;SHT31;53960;51.826;5.850;2022-11-20T08:11:15;-1.84;88.20
67054;SHT31;53960;51.826;5.850;2022-11-20T08:13:58;-1.78;88.18
67054;SHT31;53960;51.826;5.850;2022-11-20T08:16:40;-1.72;88.46
67054;SHT31;53960;51.826;5.850;2022-11-20T08:19:06;-1.71;88.90
67054;SHT31;53960;51.826;5.850;2022-11-20T08:21:32;-1.68;88.60
67054;SHT31;53960;51.826;5.850;2022-11-20T08:23:58;-1.74;89.11
67054;SHT31;53960;51.826;5.850;2022-11-20T08:26:24;-1.77;89.08
67054;SHT31;53960;51.826;5.850;2022-11-20T08:28:53;-1.58;88.93
67054;SHT31;53960;51.826;5.850;2022-11-20T08:31:19;-1.47;88.71
67054;SHT31;53960;51.826;5.850;2022-11-20T08:33:45;-1.42;88.52
67054;SHT31;53960;51.826;5.850;2022-11-20T08:36:10;-1.32;88.66
67054;SHT31;53960;51.826;5.850;2022-11-20T08:38:35;-1.20;88.59
67054;SHT31;53960;51.826;5.850;2022-11-20T08:41:02;-1.21;88.72
67054;SHT31;53960;51.826;5.850;2022-11-20T08:43:47;-1.05;88.89
67054;SHT31;53960;51.826;5.850;2022-11-20T08:46:12;-1.00;88.76
67054;SHT31;53960;51.826;5.850;2022-11-20T08:48:37;-0.95;88.62
67054;SHT31;53960;51.826;5.850;2022-11-20T08:51:03;-0.84;89.09
67054;SHT31;53960;51.826;5.850;2022-11-20T08:53:28;-0.67;88.51
67054;SHT31;53960;51.826;5.850;2022-11-20T08:55:54;-0.72;88.77
67054;SHT31;53960;51.826;5.850;2022-11-20T08:58:19;-0.69;88.80
67054;SHT31;53960;51.826;5.850;2022-11-20T09:00:44;-0.62;88.67
67054;SHT31;53960;51.826;5.850;2022-11-20T09:03:10;-0.51;88.66
67054;SHT31;53960;51.826;5.850;2022-11-20T09:05:35;-0.51;88.89
67054;SHT31;53960;51.826;5.850;2022-11-20T09:08:00;-0.44;88.59
67054;SHT31;53960;51.826;5.850;2022-11-20T09:10:27;-0.30;88.28
67054;SHT31;53960;51.826;5.850;2022-11-20T09:12:53;-0.37;88.72
67054;SHT31;53960;51.826;5.850;2022-11-20T09:15:20;-0.36;88.77
67054;SHT31;53960;51.826;5.850;2022-11-20T09:17:52;-0.31;89.33
67054;SHT31;53960;51.826;5.850;2022-11-20T09:20:18;-0.20;89.16
67054;SHT31;53960;51.826;5.850;2022-11-20T09:22:44;-0.14;88.89
67054;SHT31;53960;51.826;5.850;2022-11-20T09:25:09;0.00;88.89
67054;SHT31;53960;51.826;5.850;2022-11-20T09:27:34;0.02;88.94
67054;SHT31;53960;51.826;5.850;2022-11-20T09:30:01;0.08;88.51
67054;SHT31;53960;51.826;5.850;2022-11-20T09:32:26;0.12;88.39
67054;SHT31;53960;51.826;5.850;2022-11-20T09:34:51;0.18;88.52
67054;SHT31;53960;51.826;5.850;2022-11-20T09:37:16;0.22;88.20
67054;SHT31;53960;51.826;5.850;2022-11-20T09:39:42;0.21;89.28
67054;SHT31;53960;51.826;5.850;2022-11-20T09:42:37;0.26;88.95
67054;SHT31;53960;51.826;5.850;2022-11-20T09:48:10;0.31;89.10
67054;SHT31;53960;51.826;5.850;2022-11-20T09:50:45;0.32;89.35
67054;SHT31;53960;51.826;5.850;2022-11-20T09:56:17;0.41;89.26
67054;SHT31;53960;51.826;5.850;2022-11-20T09:58:45;0.51;89.25
67054;SHT31;53960;51.826;5.850;2022-11-20T10:01:15;0.53;89.14
67054;SHT31;53960;51.826;5.850;2022-11-20T10:03:50;0.55;89.57
67054;SHT31;53960;51.826;5.850;2022-11-20T10:06:18;0.65;89.22
67054;SHT31;53960;51.826;5.850;2022-11-20T10:08:54;0.63;89.19
67054;SHT31;53960;51.826;5.850;2022-11-20T10:11:48;0.76;89.73
67054;SHT31;53960;51.826;5.850;2022-11-20T10:14:42;0.89;89.05
67054;SHT31;53960;51.826;5.850;2022-11-20T10:17:40;1.01;88.96
67054;SHT31;53960;51.826;5.850;2022-11-20T10:20:35;1.04;89.29
67054;SHT31;53960;51.826;5.850;2022-11-20T10:26:01;1.19;89.12
67054;SHT31;53960;51.826;5.850;2022-11-20T10:28:34;1.31;89.00
67054;SHT31;53960;51.826;5.850;2022-11-20T10:31:13;1.38;89.20
67054;SHT31;53960;51.826;5.850;2022-11-20T10:33:41;1.45;89.04
67054;SHT31;53960;51.826;5.850;2022-11-20T10:36:21;1.56;89.83
67054;SHT31;53960;51.826;5.850;2022-11-20T10:38:59;1.65;89.92
67054;SHT31;53960;51.826;5.850;2022-11-20T10:41:29;1.73;89.51
67054;SHT31;53960;51.826;5.850;2022-11-20T10:44:17;1.78;89.92
67054;SHT31;53960;51.826;5.850;2022-11-20T10:47:05;1.80;89.09
67054;SHT31;53960;51.826;5.850;2022-11-20T10:49:32;1.85;88.96
67054;SHT31;53960;51.826;5.850;2022-11-20T10:55:01;1.90;88.87
67054;SHT31;53960;51.826;5.850;2022-11-20T10:57:54;1.96;89.07
67054;SHT31;53960;51.826;5.850;2022-11-20T11:00:22;1.98;88.89
67054;SHT31;53960;51.826;5.850;2022-11-20T11:02:50;2.02;88.59
67054;SHT31;53960;51.826;5.850;2022-11-20T11:07:59;2.11;88.86
67054;SHT31;53960;51.826;5.850;2022-11-20T11:12:58;2.13;89.22
67054;SHT31;53960;51.826;5.850;2022-11-20T11:15:39;2.14;89.11
67054;SHT31;53960;51.826;5.850;2022-11-20T11:18:09;2.16;89.18
67054;SHT31;53960;51.826;5.850;2022-11-20T11:20:34;2.17;89.67
67054;SHT31;53960;51.826;5.850;2022-11-20T11:23:00;2.23;89.50
67054;SHT31;53960;51.826;5.850;2022-11-20T11:25:32;2.20;89.83
67054;SHT31;53960;51.826;5.850;2022-11-20T11:28:19;2.29;89.42
67054;SHT31;53960;51.826;5.850;2022-11-20T11:30:45;2.37;89.27
67054;SHT31;53960;51.826;5.850;2022-11-20T11:33:19;2.41;89.15
67054;SHT31;53960;51.826;5.850;2022-11-20T11:35:55;2.47;89.34
67054;SHT31;53960;51.826;5.850;2022-11-20T11:38:43;2.54;89.01
67054;SHT31;53960;51.826;5.850;2022-11-20T11:41:14;2.61;88.79
67054;SHT31;53960;51.826;5.850;2022-11-20T11:43:51;2.66;88.78
67054;SHT31;53960;51.826;5.850;2022-11-20T11:46:35;2.65;88.34
67054;SHT31;53960;51.826;5.850;2022-11-20T11:51:38;2.72;88.65
67054;SHT31;53960;51.826;5.850;2022-11-20T11:54:16;2.69;88.08
67054;SHT31;53960;51.826;5.850;2022-11-20T11:56:43;2.75;88.35
67054;SHT31;53960;51.826;5.850;2022-11-20T11:59:12;2.74;88.30
67054;SHT31;53960;51.826;5.850;2022-11-20T12:01:45;2.78;88.18
67054;SHT31;53960;51.826;5.850;2022-11-20T12:07:00;2.74;87.80
67054;SHT31;53960;51.826;5.850;2022-11-20T12:09:37;2.68;87.80
67054;SHT31;53960;51.826;5.850;2022-11-20T12:12:10;2.71;87.49
67054;SHT31;53960;51.826;5.850;2022-11-20T12:14:42;2.74;87.86
67054;SHT31;53960;51.826;5.850;2022-11-20T12:17:12;2.69;88.31
67054;SHT31;53960;51.826;5.850;2022-11-20T12:19:37;2.65;88.66
67054;SHT31;53960;51.826;5.850;2022-11-20T12:22:48;2.62;89.27
67054;SHT31;53960;51.826;5.850;2022-11-20T12:25:22;2.72;89.37
67054;SHT31;53960;51.826;5.850;2022-11-20T12:27:55;2.71;90.16
67054;SHT31;53960;51.826;5.850;2022-11-20T12:30:23;2.75;90.16
67054;SHT31;53960;51.826;5.850;2022-11-20T12:33:19;2.75;90.88
67054;SHT31;53960;51.826;5.850;2022-11-20T12:36:17;2.78;91.34
67054;SHT31;53960;51.826;5.850;2022-11-20T12:39:11;2.84;91.28
67054;SHT31;53960;51.826;5.850;2022-11-20T13:06:46;2.82;91.74
67054;SHT31;53960;51.826;5.850;2022-11-20T13:09:15;2.82;91.87
67054;SHT31;53960;51.826;5.850;2022-11-20T13:11:49;2.78;92.14
67054;SHT31;53960;51.826;5.850;2022-11-20T13:14:37;2.84;91.97
67054;SHT31;53960;51.826;5.850;2022-11-20T13:17:16;2.89;91.73
67054;SHT31;53960;51.826;5.850;2022-11-20T13:19:50;2.88;92.08
67054;SHT31;53960;51.826;5.850;2022-11-20T13:22:25;2.88;91.79
67054;SHT31;53960;51.826;5.850;2022-11-20T13:24:51;2.85;92.95
67054;SHT31;53960;51.826;5.850;2022-11-20T13:27:20;2.77;93.23
67054;SHT31;53960;51.826;5.850;2022-11-20T13:29:58;2.77;93.02
67054;SHT31;53960;51.826;5.850;2022-11-20T13:32:26;2.78;93.25
67054;SHT31;53960;51.826;5.850;2022-11-20T13:35:00;2.74;93.41
67054;SHT31;53960;51.826;5.850;2022-11-20T13:37:32;2.78;93.79
67054;SHT31;53960;51.826;5.850;2022-11-20T13:42:36;2.88;93.19
67054;SHT31;53960;51.826;5.850;2022-11-20T13:45:10;2.81;93.30
67054;SHT31;53960;51.826;5.850;2022-11-20T13:47:36;2.84;93.29
67054;SHT31;53960;51.826;5.850;2022-11-20T13:50:03;2.89;93.22
67054;SHT31;53960;51.826;5.850;2022-11-20T13:53:06;2.91;93.46
67054;SHT31;53960;51.826;5.850;2022-11-20T13:55:44;2.95;93.35
67054;SHT31;53960;51.826;5.850;2022-11-20T14:00:51;3.00;93.83
67054;SHT31;53960;51.826;5.850;2022-11-20T14:03:24;3.02;93.35
67054;SHT31;53960;51.826;5.850;2022-11-20T14:06:44;3.00;93.64
67054;SHT31;53960;51.826;5.850;2022-11-20T14:09:01;3.03;93.73
67054;SHT31;53960;51.826;5.850;2022-11-20T14:11:30;3.00;93.94
67054;SHT31;53960;51.826;5.850;2022-11-20T14:14:10;3.02;94.11
67054;SHT31;53960;51.826;5.850;2022-11-20T14:16:38;3.02;94.07
67054;SHT31;53960;51.826;5.850;2022-11-20T14:21:48;3.05;94.63
67054;SHT31;53960;51.826;5.850;2022-11-20T14:24:22;3.03;94.89
67054;SHT31;53960;51.826;5.850;2022-11-20T14:26:48;2.99;95.15
67054;SHT31;53960;51.826;5.850;2022-11-20T14:29:16;2.98;95.54
67054;SHT31;53960;51.826;5.850;2022-11-20T14:31:43;2.95;95.99
67054;SHT31;53960;51.826;5.850;2022-11-20T14:34:20;2.98;95.92
67054;SHT31;53960;51.826;5.850;2022-11-20T14:36:46;2.99;95.67
67054;SHT31;53960;51.826;5.850;2022-11-20T14:39:20;2.98;96.27
67054;SHT31;53960;51.826;5.850;2022-11-20T14:41:52;2.99;96.45
67054;SHT31;53960;51.826;5.850;2022-11-20T14:44:21;3.03;96.68
67054;SHT31;53960;51.826;5.850;2022-11-20T14:46:48;3.08;96.63
67054;SHT31;53960;51.826;5.850;2022-11-20T14:49:14;3.06;96.56
67054;SHT31;53960;51.826;5.850;2022-11-20T14:51:40;3.10;96.52
67054;SHT31;53960;51.826;5.850;2022-11-20T14:56:42;3.13;96.85
67054;SHT31;53960;51.826;5.850;2022-11-20T14:59:08;3.10;97.07
67054;SHT31;53960;51.826;5.850;2022-11-20T15:01:34;3.12;96.81
67054;SHT31;53960;51.826;5.850;2022-11-20T15:04:09;3.18;97.20
67054;SHT31;53960;51.826;5.850;2022-11-20T15:06:35;3.18;96.89
67054;SHT31;53960;51.826;5.850;2022-11-20T15:09:03;3.16;97.34
67054;SHT31;53960;51.826;5.850;2022-11-20T15:11:31;3.19;97.36
67054;SHT31;53960;51.826;5.850;2022-11-20T15:13:58;3.23;97.20
67054;SHT31;53960;51.826;5.850;2022-11-20T15:16:27;3.22;97.13
67054;SHT31;53960;51.826;5.850;2022-11-20T15:18:53;3.20;97.47
67054;SHT31;53960;51.826;5.850;2022-11-20T15:21:19;3.19;97.50
67054;SHT31;53960;51.826;5.850;2022-11-20T15:23:45;3.19;97.48
67054;SHT31;53960;51.826;5.850;2022-11-20T15:26:12;3.22;97.44
67054;SHT31;53960;51.826;5.850;2022-11-20T15:28:43;3.23;97.25
67054;SHT31;53960;51.826;5.850;2022-11-20T15:31:12;3.23;98.08
67054;SHT31;53960;51.826;5.850;2022-11-20T15:33:38;3.23;98.02
67054;SHT31;53960;51.826;5.850;2022-11-20T15:36:04;3.20;98.20
67054;SHT31;53960;51.826;5.850;2022-11-20T15:38:29;3.30;98.04
67054;SHT31;53960;51.826;5.850;2022-11-20T15:40:54;3.31;97.92
67054;SHT31;53960;51.826;5.850;2022-11-20T15:43:20;3.30;98.19
67054;SHT31;53960;51.826;5.850;2022-11-20T15:45:47;3.33;98.24
67054;SHT31;53960;51.826;5.850;2022-11-20T15:48:16;3.36;98.22
67054;SHT31;53960;51.826;5.850;2022-11-20T15:51:23;3.34;98.16
67054;SHT31;53960;51.826;5.850;2022-11-20T15:53:50;3.29;98.07
67054;SHT31;53960;51.826;5.850;2022-11-20T15:56:15;3.29;98.70
67054;SHT31;53960;51.826;5.850;2022-11-20T15:58:41;3.30;98.88
67054;SHT31;53960;51.826;5.850;2022-11-20T16:01:11;3.37;98.39
67054;SHT31;53960;51.826;5.850;2022-11-20T16:03:37;3.39;98.24
67054;SHT31;53960;51.826;5.850;2022-11-20T16:06:02;3.41;98.46
67054;SHT31;53960;51.826;5.850;2022-11-20T16:08:27;3.51;98.15
67054;SHT31;53960;51.826;5.850;2022-11-20T16:10:53;3.49;97.91
67054;SHT31;53960;51.826;5.850;2022-11-20T16:13:18;3.51;98.04
67054;SHT31;53960;51.826;5.850;2022-11-20T16:16:07;3.50;98.03
67054;SHT31;53960;51.826;5.850;2022-11-20T16:18:35;3.54;98.09
67054;SHT31;53960;51.826;5.850;2022-11-20T16:21:00;3.60;97.95
67054;SHT31;53960;51.826;5.850;2022-11-20T16:23:26;3.61;98.01
67054;SHT31;53960;51.826;5.850;2022-11-20T16:25:51;3.70;97.49
67054;SHT31;53960;51.826;5.850;2022-11-20T16:28:17;3.67;97.56
67054;SHT31;53960;51.826;5.850;2022-11-20T16:30:42;3.64;97.57
67054;SHT31;53960;51.826;5.850;2022-11-20T16:33:12;3.70;97.65
67054;SHT31;53960;51.826;5.850;2022-11-20T16:35:38;3.70;97.63
67054;SHT31;53960;51.826;5.850;2022-11-20T16:38:04;3.74;97.37
67054;SHT31;53960;51.826;5.850;2022-11-20T16:40:29;3.74;97.27
67054;SHT31;53960;51.826;5.850;2022-11-20T16:42:54;3.70;97.40
67054;SHT31;53960;51.826;5.850;2022-11-20T16:45:20;3.78;97.27
67054;SHT31;53960;51.826;5.850;2022-11-20T16:47:45;3.68;97.63
67054;SHT31;53960;51.826;5.850;2022-11-20T16:50:10;3.78;97.43
67054;SHT31;53960;51.826;5.850;2022-11-20T16:52:36;3.77;97.42
67054;SHT31;53960;51.826;5.850;2022-11-20T16:55:02;3.78;97.33
67054;SHT31;53960;51.826;5.850;2022-11-20T16:57:28;3.77;97.34
67054;SHT31;53960;51.826;5.850;2022-11-20T16:59:55;3.73;97.25